createdAt,value
2018-10-11T00:00:34.946Z,84.90
2018-10-11T00:03:02.510Z,84.80
2018-10-11T00:05:30.067Z,84.70
2018-10-11T00:07:57.690Z,84.60
2018-10-11T00:10:25.784Z,84.90
2018-10-11T00:12:53.452Z,84.70
2018-10-11T00:15:20.931Z,84.70
2018-10-11T00:17:48.494Z,85.00
2018-10-11T00:20:15.979Z,85.20
2018-10-11T00:22:43.546Z,85.60
2018-10-11T00:25:11.057Z,85.50
2018-10-11T00:27:38.603Z,85.40
2018-10-11T00:30:06.276Z,84.90
2018-10-11T00:32:33.807Z,84.70
2018-10-11T00:35:01.249Z,84.60
2018-10-11T00:37:28.822Z,85.50
2018-10-11T00:39:56.367Z,85.60
2018-10-11T00:42:23.822Z,85.50
2018-10-11T00:44:51.367Z,85.40
2018-10-11T00:47:18.841Z,85.00
2018-10-11T00:49:46.416Z,85.20
2018-10-11T00:52:13.890Z,85.80
2018-10-11T00:54:41.433Z,85.70
2018-10-11T00:57:08.902Z,85.50
2018-10-11T00:59:36.461Z,85.70
2018-10-11T01:02:03.982Z,85.70
2018-10-11T01:04:31.581Z,85.60
2018-10-11T01:06:59.053Z,85.70
2018-10-11T01:09:26.679Z,85.70
2018-10-11T01:11:54.150Z,86.20
2018-10-11T01:14:21.708Z,87.50
2018-10-11T01:16:49.246Z,87.60
2018-10-11T01:19:16.738Z,87.50
2018-10-11T01:21:44.302Z,87.50
2018-10-11T01:24:11.769Z,87.10
2018-10-11T01:26:39.310Z,87.00
2018-10-11T01:29:06.793Z,87.40
2018-10-11T01:31:34.350Z,87.20
2018-10-11T01:34:01.911Z,86.90
2018-10-11T01:36:29.501Z,87.30
2018-10-11T01:38:57.069Z,86.80
2018-10-11T01:41:24.667Z,86.50
2018-10-11T01:43:52.227Z,86.90
2018-10-11T01:46:19.874Z,88.70
2018-10-11T01:48:47.383Z,88.80
2018-10-11T01:51:15.020Z,88.60
2018-10-11T01:53:42.531Z,88.30
2018-10-11T01:56:10.001Z,88.30
2018-10-11T01:58:37.622Z,88.00
2018-10-11T02:01:05.384Z,87.40
2018-10-11T02:03:32.915Z,87.00
2018-10-11T02:06:00.379Z,86.60
2018-10-11T02:08:27.943Z,86.60
2018-10-11T02:10:55.435Z,87.30
2018-10-11T02:13:23.017Z,87.20
2018-10-11T02:15:50.504Z,86.90
2018-10-11T02:18:18.148Z,86.80
2018-10-11T02:20:45.609Z,86.90
2018-10-11T02:23:13.199Z,87.50
2018-10-11T02:25:40.685Z,87.50
2018-10-11T02:28:08.644Z,87.60
2018-10-11T02:30:36.108Z,87.40
2018-10-11T02:33:04.661Z,87.50
2018-10-11T02:35:32.153Z,88.50
2018-10-11T02:37:59.703Z,90.00
2018-10-11T02:40:27.258Z,90.70
2018-10-11T02:42:54.778Z,90.40
2018-10-11T02:45:22.311Z,90.10
2018-10-11T02:47:49.793Z,89.50
2018-10-11T02:50:17.326Z,89.20
2018-10-11T02:52:44.790Z,88.80
2018-10-11T02:55:23.372Z,88.70
2018-10-11T02:58:02.825Z,88.50
2018-10-11T03:00:31.153Z,88.30
2018-10-11T03:03:03.591Z,88.10
2018-10-11T03:05:33.847Z,88.40
2018-10-11T03:08:01.389Z,88.80
2018-10-11T03:10:29.058Z,88.90
2018-10-11T03:12:56.569Z,88.70
2018-10-11T03:15:24.131Z,88.40
2018-10-11T03:17:51.673Z,88.20
2018-10-11T03:20:19.258Z,87.20
2018-10-11T03:22:46.790Z,87.30
2018-10-11T03:25:14.275Z,87.30
2018-10-11T03:27:41.810Z,87.30
2018-10-11T03:30:09.282Z,87.40
2018-10-11T03:32:36.869Z,87.30
2018-10-11T03:35:04.427Z,87.30
2018-10-11T03:37:31.974Z,87.10
2018-10-11T03:39:59.506Z,87.00
2018-10-11T03:42:27.069Z,87.30
2018-10-11T03:44:54.538Z,87.20
2018-10-11T03:47:22.136Z,87.10
2018-10-11T03:49:49.675Z,87.10
2018-10-11T03:52:17.250Z,87.60
2018-10-11T03:54:44.726Z,87.90
2018-10-11T03:57:12.205Z,88.20
2018-10-11T03:59:39.805Z,88.70
2018-10-11T04:02:07.454Z,88.60
2018-10-11T04:04:35.007Z,89.20
2018-10-11T04:07:02.542Z,89.00
2018-10-11T04:09:30.079Z,88.30
2018-10-11T04:11:57.564Z,88.30
2018-10-11T04:14:25.124Z,88.20
2018-10-11T04:16:52.594Z,88.30
2018-10-11T04:19:20.186Z,88.20
2018-10-11T04:21:47.647Z,87.70
2018-10-11T04:24:15.202Z,87.50
2018-10-11T04:26:42.667Z,87.50
2018-10-11T04:29:10.209Z,87.90
2018-10-11T04:31:37.668Z,88.20
2018-10-11T04:34:05.235Z,88.20
2018-10-11T04:36:32.695Z,88.50
2018-10-11T04:39:00.386Z,88.40
2018-10-11T04:41:27.938Z,88.20
2018-10-11T04:43:55.426Z,88.30
2018-10-11T04:46:22.946Z,89.60
2018-10-11T04:48:50.435Z,90.10
2018-10-11T04:51:18.191Z,90.00
2018-10-11T04:53:50.227Z,89.60
2018-10-11T04:56:17.782Z,89.30
2018-10-11T04:58:45.269Z,88.90
2018-10-11T05:01:12.866Z,88.50
2018-10-11T05:03:40.338Z,88.40
2018-10-11T05:06:07.906Z,87.90
2018-10-11T05:08:35.388Z,87.70
2018-10-11T05:11:02.935Z,87.70
2018-10-11T05:13:39.261Z,87.80
2018-10-11T05:16:06.884Z,88.00
2018-10-11T05:18:34.617Z,88.40
2018-10-11T05:21:02.235Z,88.90
2018-10-11T05:23:29.834Z,89.80
2018-10-11T05:25:57.343Z,90.00
2018-10-11T05:28:24.925Z,90.00
2018-10-11T05:30:52.945Z,89.60
2018-10-11T05:33:20.614Z,89.50
2018-10-11T05:35:48.109Z,89.20
2018-10-11T05:38:15.811Z,88.70
2018-10-11T05:40:43.320Z,88.70
2018-10-11T05:43:11.716Z,88.40
2018-10-11T05:45:39.352Z,88.40
2018-10-11T05:48:07.000Z,89.20
2018-10-11T05:50:34.559Z,90.00
2018-10-11T05:53:02.214Z,90.20
2018-10-11T05:55:29.775Z,90.40
2018-10-11T05:57:57.431Z,90.60
2018-10-11T06:00:25.014Z,90.50
2018-10-11T06:02:58.939Z,90.50
2018-10-11T06:05:27.113Z,90.70
2018-10-11T06:07:54.710Z,91.70
2018-10-11T06:10:22.403Z,92.30
2018-10-11T06:12:49.986Z,92.10
2018-10-11T06:15:17.604Z,91.90
2018-10-11T06:17:45.141Z,91.70
2018-10-11T06:20:13.186Z,91.60
2018-10-11T06:22:41.150Z,91.60
2018-10-11T06:25:09.224Z,91.70
2018-10-11T06:27:36.739Z,91.80
2018-10-11T06:30:04.567Z,91.70
2018-10-11T06:32:32.175Z,91.60
2018-10-11T06:34:59.851Z,91.70
2018-10-11T06:37:27.780Z,91.90
2018-10-11T06:39:55.713Z,93.20
2018-10-11T06:42:23.367Z,93.40
2018-10-11T06:44:50.854Z,92.90
2018-10-11T06:47:19.217Z,92.60
2018-10-11T06:49:46.905Z,92.70
2018-10-11T06:52:14.464Z,92.20
2018-10-11T06:54:42.162Z,92.10
2018-10-11T06:57:09.701Z,92.50
2018-10-11T06:59:37.319Z,92.80
2018-10-11T07:02:04.946Z,93.60
2018-10-11T07:04:32.418Z,94.10
2018-10-11T07:06:59.954Z,94.20
2018-10-11T07:09:27.422Z,94.00
2018-10-11T07:11:54.952Z,94.20
2018-10-11T07:14:22.437Z,94.80
2018-10-11T07:16:50.000Z,95.10
2018-10-11T07:19:17.572Z,95.10
2018-10-11T07:21:45.086Z,95.10
2018-10-11T07:24:12.565Z,95.50
2018-10-11T07:26:40.122Z,96.00
2018-10-11T07:29:07.658Z,95.90
2018-10-11T07:31:35.153Z,95.70
2018-10-11T07:34:02.830Z,95.90
2018-10-11T07:36:30.310Z,95.80
2018-10-11T07:41:25.374Z,95.10
2018-10-11T07:43:52.946Z,95.10
2018-10-11T07:46:20.410Z,94.70
2018-10-11T07:48:47.993Z,94.40
2018-10-11T07:51:15.474Z,94.50
2018-10-11T07:53:43.055Z,94.40
2018-10-11T07:56:10.554Z,94.70
2018-10-11T07:58:38.113Z,94.30
2018-10-11T08:01:05.658Z,94.40
2018-10-11T08:03:33.225Z,94.10
2018-10-11T08:06:00.997Z,94.00
2018-10-11T08:08:28.555Z,94.10
2018-10-11T08:10:56.158Z,94.50
2018-10-11T08:13:23.616Z,93.70
2018-10-11T08:15:51.191Z,93.70
2018-10-11T08:18:18.903Z,93.90
2018-10-11T08:20:46.470Z,93.50
2018-10-11T08:23:13.936Z,93.20
2018-10-11T08:25:42.022Z,93.10
2018-10-11T08:28:09.514Z,93.40
2018-10-11T08:30:37.094Z,94.10
2018-10-11T08:33:04.756Z,93.40
2018-10-11T08:35:32.468Z,93.40
2018-10-11T08:38:00.127Z,93.10
2018-10-11T08:40:27.538Z,92.80
2018-10-11T08:42:55.106Z,93.00
2018-10-11T08:45:22.598Z,93.20
2018-10-11T08:47:50.146Z,92.50
2018-10-11T08:50:17.747Z,90.90
2018-10-11T08:52:45.235Z,89.70
2018-10-11T08:55:12.746Z,88.80
2018-10-11T08:57:40.350Z,83.50
2018-10-11T09:00:09.073Z,83.80
2018-10-11T09:02:36.658Z,80.50
2018-10-11T09:05:04.806Z,77.60
2018-10-11T09:07:32.302Z,75.40
2018-10-11T09:09:59.889Z,75.40
2018-10-11T09:12:27.530Z,71.60
2018-10-11T09:14:55.035Z,71.20
2018-10-11T09:17:22.700Z,72.60
2018-10-11T09:19:50.207Z,71.90
2018-10-11T09:22:17.685Z,70.10
2018-10-11T09:24:45.250Z,69.80
2018-10-11T09:27:12.761Z,70.50
2018-10-11T09:29:40.347Z,71.20
2018-10-11T09:32:07.866Z,71.00
2018-10-11T09:34:35.471Z,71.60
2018-10-11T09:37:02.974Z,72.70
2018-10-11T09:39:30.643Z,73.60
2018-10-11T09:41:58.245Z,74.10
2018-10-11T09:44:26.019Z,74.90
2018-10-11T09:46:53.494Z,74.80
2018-10-11T09:49:21.058Z,73.30
2018-10-11T09:51:48.541Z,75.10
2018-10-11T09:54:16.127Z,77.20
2018-10-11T09:57:48.583Z,76.80
2018-10-11T10:00:21.914Z,77.60
2018-10-11T10:02:49.974Z,76.50
2018-10-11T10:05:17.553Z,77.20
2018-10-11T10:07:45.104Z,77.90
2018-10-11T10:10:12.798Z,78.30
2018-10-11T10:12:40.357Z,79.50
2018-10-11T10:15:08.085Z,77.80
2018-10-11T10:17:36.035Z,77.80
2018-10-11T10:20:03.726Z,77.10
2018-10-11T10:22:31.298Z,75.80
2018-10-11T10:24:58.807Z,75.10
2018-10-11T10:27:26.383Z,74.10
2018-10-11T10:29:53.870Z,75.90
2018-10-11T10:32:21.460Z,74.70
2018-10-11T10:34:48.965Z,72.90
2018-10-11T10:37:16.574Z,72.20
2018-10-11T10:39:44.296Z,72.30
2018-10-11T10:42:11.815Z,71.50
2018-10-11T10:44:39.305Z,71.60
2018-10-11T10:47:06.929Z,72.00
2018-10-11T10:49:34.401Z,72.30
2018-10-11T10:52:02.014Z,72.60
2018-10-11T10:54:30.763Z,69.10
2018-10-11T10:56:59.156Z,69.60
2018-10-11T10:59:26.806Z,68.40
2018-10-11T11:01:54.541Z,69.70
2018-10-11T11:04:22.168Z,67.80
2018-10-11T11:06:49.829Z,67.70
2018-10-11T11:09:17.412Z,66.50
2018-10-11T11:11:45.038Z,67.00
2018-10-11T11:14:13.776Z,67.60
2018-10-11T11:16:41.993Z,67.50
2018-10-11T11:19:10.038Z,67.00
2018-10-11T11:21:37.607Z,66.80
2018-10-11T11:24:05.285Z,67.30
2018-10-11T11:26:32.822Z,65.60
2018-10-11T11:29:00.967Z,65.70
2018-10-11T11:31:29.159Z,63.90
2018-10-11T11:33:56.814Z,63.00
2018-10-11T11:36:24.333Z,65.10
2018-10-11T11:38:51.991Z,65.40
2018-10-11T11:41:19.594Z,63.60
2018-10-11T11:43:47.106Z,63.50
2018-10-11T11:46:14.781Z,62.40
2018-10-11T11:48:42.348Z,64.20
2018-10-11T11:51:10.944Z,62.60
2018-10-11T11:53:40.012Z,61.20
2018-10-11T11:56:07.698Z,62.20
2018-10-11T11:58:35.360Z,62.30
2018-10-11T12:01:03.029Z,60.30
2018-10-11T12:03:30.594Z,61.20
2018-10-11T12:05:58.185Z,61.80
2018-10-11T12:08:25.774Z,63.50
2018-10-11T12:10:53.424Z,63.80
2018-10-11T12:13:20.919Z,62.10
2018-10-11T12:15:48.522Z,61.60
2018-10-11T12:18:17.707Z,61.30
2018-10-11T12:20:45.342Z,60.60
2018-10-11T12:23:13.275Z,59.90
2018-10-11T12:25:40.870Z,59.40
2018-10-11T12:28:08.577Z,57.90
2018-10-11T12:30:36.098Z,59.10
2018-10-11T12:33:03.746Z,59.20
2018-10-11T12:35:31.491Z,59.80
2018-10-11T12:37:59.173Z,59.60
2018-10-11T12:40:26.813Z,59.20
2018-10-11T12:42:54.528Z,59.60
2018-10-11T12:45:22.216Z,59.60
2018-10-11T12:47:49.807Z,59.20
2018-10-11T12:50:17.336Z,59.20
2018-10-11T12:52:44.939Z,60.40
2018-10-11T12:55:12.529Z,58.70
2018-10-11T12:57:40.359Z,59.30
2018-10-11T13:00:11.558Z,58.50
2018-10-11T13:02:39.157Z,59.10
2018-10-11T13:05:06.813Z,59.40
2018-10-11T13:07:34.561Z,59.70
2018-10-11T13:10:02.544Z,59.80
2018-10-11T13:12:30.242Z,58.70
2018-10-11T13:14:57.742Z,58.20
2018-10-11T13:17:25.406Z,58.90
2018-10-11T13:19:53.114Z,57.80
2018-10-11T13:22:20.679Z,57.20
2018-10-11T13:24:49.450Z,57.70
2018-10-11T13:27:15.893Z,56.50
2018-10-11T13:29:43.508Z,56.60
2018-10-11T13:32:11.065Z,57.50
2018-10-11T13:34:38.701Z,54.90
2018-10-11T13:37:06.338Z,57.30
2018-10-11T13:39:34.373Z,56.20
2018-10-11T13:42:02.091Z,56.60
2018-10-11T13:44:29.710Z,54.90
2018-10-11T13:46:58.120Z,56.80
2018-10-11T13:49:25.779Z,56.50
2018-10-11T13:51:53.313Z,54.80
2018-10-11T13:54:20.943Z,55.70
2018-10-11T13:56:53.879Z,55.00
2018-10-11T13:59:16.496Z,55.60
2018-10-11T14:01:44.558Z,55.40
2018-10-11T14:04:12.110Z,55.40
2018-10-11T14:06:39.757Z,54.90
2018-10-11T14:09:08.911Z,54.60
2018-10-11T14:11:36.782Z,54.30
2018-10-11T14:14:04.420Z,54.50
2018-10-11T14:16:32.078Z,54.00
2018-10-11T14:18:59.633Z,55.20
2018-10-11T14:21:27.224Z,56.00
2018-10-11T14:23:54.744Z,56.60
2018-10-11T14:26:22.371Z,56.80
2018-10-11T14:28:50.384Z,57.50
2018-10-11T14:31:17.911Z,56.60
2018-10-11T14:33:45.493Z,57.30
2018-10-11T14:36:13.219Z,57.70
2018-10-11T14:38:40.852Z,57.50
2018-10-11T14:41:08.425Z,57.70
2018-10-11T14:43:36.050Z,57.70
2018-10-11T14:46:04.990Z,57.60
2018-10-11T14:48:32.587Z,57.90
2018-10-11T14:51:00.226Z,57.50
2018-10-11T14:53:27.788Z,57.90
2018-10-11T14:55:55.390Z,58.10
2018-10-11T14:58:23.053Z,58.50
2018-10-11T15:00:50.602Z,59.20
2018-10-11T15:03:18.292Z,58.10
2018-10-11T15:05:45.833Z,58.20
2018-10-11T15:08:13.446Z,58.10
2018-10-11T15:10:41.218Z,58.50
2018-10-11T15:13:08.601Z,58.80
2018-10-11T15:15:36.284Z,58.80
2018-10-11T15:18:04.029Z,58.30
2018-10-11T15:20:31.637Z,58.60
2018-10-11T15:22:59.186Z,58.10
2018-10-11T15:25:26.794Z,58.80
2018-10-11T15:27:54.348Z,59.20
2018-10-11T15:30:22.095Z,59.30
2018-10-11T15:32:49.716Z,59.40
2018-10-11T15:35:17.311Z,59.30
2018-10-11T15:37:44.858Z,59.80
2018-10-11T15:40:12.561Z,59.50
2018-10-11T15:42:40.208Z,59.00
2018-10-11T15:45:08.305Z,59.30
2018-10-11T15:47:35.933Z,59.40
2018-10-11T15:50:03.635Z,60.10
2018-10-11T15:52:31.191Z,59.80
2018-10-11T15:54:58.742Z,60.30
2018-10-11T15:57:26.386Z,61.10
2018-10-11T15:59:54.400Z,61.60
2018-10-11T16:02:22.069Z,61.60
2018-10-11T16:04:50.437Z,61.90
2018-10-11T16:07:18.092Z,62.50
2018-10-11T16:09:45.651Z,62.60
2018-10-11T16:12:13.267Z,62.90
2018-10-11T16:14:40.785Z,63.10
2018-10-11T16:17:08.466Z,63.30
2018-10-11T16:19:36.027Z,63.50
2018-10-11T16:22:03.618Z,63.80
2018-10-11T16:24:31.119Z,64.10
2018-10-11T16:26:58.696Z,64.20
2018-10-11T16:29:26.320Z,64.10
2018-10-11T16:31:53.848Z,64.00
2018-10-11T16:34:21.479Z,63.70
2018-10-11T16:36:49.038Z,63.90
2018-10-11T16:39:16.748Z,64.40
2018-10-11T16:41:44.263Z,64.40
2018-10-11T16:44:11.888Z,64.60
2018-10-11T16:46:39.451Z,64.70
2018-10-11T16:49:07.558Z,64.90
2018-10-11T16:51:35.132Z,64.90
2018-10-11T16:54:02.726Z,64.90
2018-10-11T16:56:30.259Z,65.20
2018-10-11T16:58:57.967Z,65.30
2018-10-11T17:01:25.514Z,65.40
2018-10-11T17:03:53.148Z,65.40
2018-10-11T17:06:20.724Z,65.40
2018-10-11T17:08:48.350Z,65.40
2018-10-11T17:11:15.850Z,65.80
2018-10-11T17:13:43.487Z,65.50
2018-10-11T17:16:11.179Z,65.80
2018-10-11T17:18:38.908Z,65.30
2018-10-11T17:21:06.661Z,65.20
2018-10-11T17:23:34.380Z,65.30
2018-10-11T17:26:02.128Z,65.90
2018-10-11T17:28:29.690Z,66.00
2018-10-11T17:30:57.328Z,66.20
2018-10-11T17:33:24.851Z,65.90
2018-10-11T17:35:52.484Z,66.40
2018-10-11T17:38:20.039Z,66.60
2018-10-11T17:40:47.798Z,66.60
2018-10-11T17:43:15.290Z,66.80
2018-10-11T17:45:42.830Z,67.00
2018-10-11T17:48:10.492Z,67.20
2018-10-11T17:50:38.149Z,67.70
2018-10-11T17:53:05.732Z,68.30
2018-10-11T17:55:33.314Z,69.00
2018-10-11T17:58:00.989Z,69.50
2018-10-11T18:00:28.614Z,70.90
2018-10-11T18:02:56.206Z,71.90
2018-10-11T18:05:23.764Z,71.40
2018-10-11T18:07:51.444Z,72.40
2018-10-11T18:10:19.015Z,72.90
2018-10-11T18:12:46.606Z,72.80
2018-10-11T18:15:14.106Z,73.40
2018-10-11T18:17:41.722Z,74.30
2018-10-11T18:20:09.311Z,75.90
2018-10-11T18:22:36.951Z,75.50
2018-10-11T18:25:04.654Z,75.70
2018-10-11T18:27:32.188Z,76.90
2018-10-11T18:29:59.869Z,76.10
2018-10-11T18:32:27.464Z,76.30
2018-10-11T18:34:55.117Z,75.80
2018-10-11T18:37:22.676Z,76.00
2018-10-11T18:39:50.436Z,76.60
2018-10-11T18:42:17.991Z,76.90
2018-10-11T18:44:45.602Z,77.60
2018-10-11T18:47:13.146Z,77.10
2018-10-11T18:49:40.785Z,76.90
2018-10-11T18:52:09.898Z,76.80
2018-10-11T18:54:37.406Z,77.30
2018-10-11T18:59:42.170Z,77.10
2018-10-11T19:02:09.829Z,77.30
2018-10-11T19:04:37.392Z,77.50
2018-10-11T19:07:05.149Z,77.70
2018-10-11T19:09:32.654Z,77.60
2018-10-11T19:12:00.296Z,77.50
2018-10-11T19:14:27.876Z,77.60
2018-10-11T19:16:55.486Z,78.60
2018-10-11T19:19:23.029Z,78.40
2018-10-11T19:21:50.671Z,78.20
2018-10-11T19:24:18.237Z,78.10
2018-10-11T19:26:45.902Z,78.10
2018-10-11T19:29:13.431Z,78.00
2018-10-11T19:31:41.137Z,78.00
2018-10-11T19:34:08.855Z,78.30
2018-10-11T19:36:36.389Z,78.40
2018-10-11T19:39:08.710Z,78.40
2018-10-11T19:41:36.256Z,78.30
2018-10-11T19:44:03.913Z,78.60
2018-10-11T19:46:31.456Z,78.70
2018-10-11T19:49:00.252Z,78.80
2018-10-11T19:51:27.908Z,78.90
2018-10-11T19:53:55.549Z,78.80
2018-10-11T19:56:23.049Z,79.00
2018-10-11T19:58:50.986Z,78.70
2018-10-11T20:01:18.542Z,78.90
2018-10-11T20:03:51.375Z,78.80
2018-10-11T20:06:18.959Z,78.80
2018-10-11T20:08:46.486Z,78.80
2018-10-11T20:11:14.112Z,78.80
2018-10-11T20:13:41.671Z,79.00
2018-10-11T20:16:09.319Z,79.10
2018-10-11T20:18:37.354Z,79.20
2018-10-11T20:21:05.044Z,79.30
2018-10-11T20:23:32.562Z,79.30
2018-10-11T20:26:00.416Z,79.30
2018-10-11T20:28:27.825Z,79.50
2018-10-11T20:30:55.429Z,80.10
2018-10-11T20:33:23.044Z,79.50
2018-10-11T20:35:50.655Z,80.20
2018-10-11T20:38:18.138Z,80.60
2018-10-11T20:40:45.833Z,80.60
2018-10-11T20:43:13.450Z,80.30
2018-10-11T20:45:41.047Z,80.30
2018-10-11T20:48:08.695Z,80.10
2018-10-11T20:50:36.323Z,80.00
2018-10-11T20:53:04.073Z,80.10
2018-10-11T20:55:31.614Z,80.20
2018-10-11T20:57:59.254Z,80.00
2018-10-11T21:00:26.782Z,80.10
2018-10-11T21:02:54.415Z,80.40
2018-10-11T21:05:21.969Z,80.40
2018-10-11T21:07:49.531Z,80.50
2018-10-11T21:10:17.046Z,80.70
2018-10-11T21:12:44.650Z,81.40
2018-10-11T21:15:12.268Z,81.70
2018-10-11T21:17:39.877Z,81.30
2018-10-11T21:20:07.553Z,81.40
2018-10-11T21:22:35.048Z,81.30
2018-10-11T21:25:02.678Z,81.10
2018-10-11T21:27:30.338Z,81.00
2018-10-11T21:29:57.901Z,81.00
2018-10-11T21:32:25.499Z,81.10
2018-10-11T21:34:53.052Z,81.10
2018-10-11T21:37:20.541Z,81.10
2018-10-11T21:39:48.214Z,81.00
2018-10-11T21:42:15.782Z,81.00
2018-10-11T21:44:43.365Z,81.30
2018-10-11T21:47:10.899Z,81.30
2018-10-11T21:49:38.461Z,81.30
2018-10-11T21:52:06.128Z,81.40
2018-10-11T21:54:33.693Z,81.50
2018-10-11T21:57:01.391Z,81.60
2018-10-11T21:59:28.995Z,81.80
2018-10-11T22:01:56.467Z,81.90
2018-10-11T22:04:24.047Z,82.10
2018-10-11T22:06:51.606Z,82.40
2018-10-11T22:09:19.241Z,82.50
2018-10-11T22:11:46.798Z,83.00
2018-10-11T22:14:14.355Z,83.20
2018-10-11T22:16:41.978Z,83.80
2018-10-11T22:19:09.501Z,83.90
2018-10-11T22:21:37.090Z,84.30
2018-10-11T22:24:04.618Z,85.40
2018-10-11T22:26:32.226Z,86.00
2018-10-11T22:28:59.749Z,86.20
2018-10-11T22:31:27.331Z,85.80
2018-10-11T22:33:54.849Z,85.50
2018-10-11T22:36:22.455Z,85.50
2018-10-11T22:38:50.043Z,85.30
2018-10-11T22:41:17.676Z,85.60
2018-10-11T22:43:45.307Z,85.40
2018-10-11T22:46:13.233Z,85.60
2018-10-11T22:48:41.333Z,85.80
2018-10-11T22:51:08.943Z,85.60
2018-10-11T22:53:36.595Z,85.30
2018-10-11T22:56:04.118Z,85.30
2018-10-11T22:58:31.741Z,85.80
2018-10-11T23:00:59.206Z,86.00
2018-10-11T23:03:26.724Z,85.50
2018-10-11T23:05:54.221Z,85.10
2018-10-11T23:08:21.800Z,84.80
2018-10-11T23:10:49.276Z,84.50
2018-10-11T23:13:16.847Z,84.30
2018-10-11T23:15:44.331Z,84.10
2018-10-11T23:18:11.898Z,83.90
2018-10-11T23:20:40.076Z,83.90
2018-10-11T23:23:07.664Z,84.00
2018-10-11T23:25:35.176Z,83.90
2018-10-11T23:28:02.794Z,84.10
2018-10-11T23:30:30.278Z,84.10
2018-10-11T23:32:57.882Z,84.40
2018-10-11T23:35:25.421Z,83.80
2018-10-11T23:37:52.942Z,83.80
2018-10-11T23:40:20.599Z,83.70
2018-10-11T23:42:48.098Z,83.50
2018-10-11T23:45:15.660Z,83.30
2018-10-11T23:47:43.155Z,83.20
2018-10-11T23:50:10.761Z,83.40
2018-10-11T23:52:38.253Z,84.10
2018-10-11T23:55:06.863Z,84.00
2018-10-11T23:57:34.391Z,84.20
